Time;durP1;ratioP1;P1;durP2;ratioP2;P2;SDS_P1;SDS_P2;PMS_P1;PMS_P2;Temp;Humidity;BMP_temperature;BMP_pressure;BME280_temperature;BME280_humidity;BME280_pressure;Samples;Min_cycle;Max_cycle;Signal;HPM_P1;HPM_P2
2023/04/02 00:01:11;;;;;;;1.43;1.30;;;;;;;;;;5100642;28;20233;-63
2023/04/02 00:03:58;;;;;;;3.93;1.40;;;;;;;;;;5096736;28;20716;-63
2023/04/02 00:06:33;;;;;;;1.43;1.30;;;;;;;;;;5100634;28;20264;-63
2023/04/02 00:09:04;;;;;;;1.33;1.23;;;;;;;;;;5100515;28;20320;-63
2023/04/02 00:11:34;;;;;;;2.33;1.40;;;;;;;;;;5100935;28;20668;-64
2023/04/02 00:14:04;;;;;;;1.43;1.00;;;;;;;;;;5088389;28;20197;-64
2023/04/02 00:16:32;;;;;;;3.17;1.33;;;;;;;;;;5101103;28;20205;-63
2023/04/02 00:19:04;;;;;;;2.77;1.50;;;;;;;;;;5101188;28;20212;-63
2023/04/02 00:21:33;;;;;;;2.57;1.13;;;;;;;;;;5100485;28;20233;-63
2023/04/02 00:24:01;;;;;;;1.03;0.83;;;;;;;;;;5100372;28;20664;-63
2023/04/02 00:26:30;;;;;;;23.63;9.87;;;;;;;;;;5100312;28;20252;-64
2023/04/02 00:28:59;;;;;;;2.53;1.90;;;;;;;;;;5100488;28;20205;-64
2023/04/02 00:31:29;;;;;;;1.40;1.10;;;;;;;;;;5100409;28;20284;-63
2023/04/02 00:33:58;;;;;;;1.97;1.60;;;;;;;;;;5100653;28;20198;-64
2023/04/02 00:36:28;;;;;;;8.43;5.00;;;;;;;;;;5100259;28;20209;-63
2023/04/02 00:38:58;;;;;;;11.43;4.17;;;;;;;;;;5100357;28;20205;-64
2023/04/02 00:41:29;;;;;;;1.80;1.27;;;;;;;;;;5100245;28;20209;-64
2023/04/02 00:43:58;;;;;;;2.37;1.37;;;;;;;;;;5100416;28;20227;-63
2023/04/02 00:46:30;;;;;;;3.43;1.00;;;;;;;;;;5100225;28;20276;-63
2023/04/02 00:49:01;;;;;;;1.63;0.97;;;;;;;;;;5099563;28;20236;-63
2023/04/02 00:51:31;;;;;;;0.63;0.63;;;;;;;;;;5100480;28;20205;-64
2023/04/02 00:54:02;;;;;;;0.70;0.70;;;;;;;;;;5099810;28;20229;-63
2023/04/02 00:56:32;;;;;;;0.90;0.90;;;;;;;;;;5100089;28;20208;-64
2023/04/02 00:59:00;;;;;;;0.80;0.80;;;;;;;;;;5099713;28;20201;-64
2023/04/02 01:01:35;;;;;;;1.97;1.13;;;;;;;;;;5099619;28;20736;-63
2023/04/02 01:04:04;;;;;;;0.60;0.60;;;;;;;;;;5099308;28;20687;-63
2023/04/02 01:06:34;;;;;;;0.67;0.67;;;;;;;;;;5099854;28;20564;-64
2023/04/02 01:09:14;;;;;;;1.47;0.90;;;;;;;;;;5099471;28;20238;-63
2023/04/02 01:11:53;;;;;;;1.07;0.97;;;;;;;;;;5099731;28;20208;-63
2023/04/02 01:14:29;;;;;;;0.80;0.70;;;;;;;;;;5101086;28;20217;-63
2023/04/02 01:17:03;;;;;;;0.60;0.60;;;;;;;;;;5100094;28;20656;-64
2023/04/02 01:19:43;;;;;;;0.60;0.60;;;;;;;;;;5099700;28;20313;-63
2023/04/02 01:22:14;;;;;;;1.20;0.57;;;;;;;;;;5099553;28;20201;-64
2023/04/02 01:24:43;;;;;;;1.03;0.93;;;;;;;;;;5099186;28;20723;-63
2023/04/02 01:27:16;;;;;;;1.47;1.10;;;;;;;;;;5099502;28;20205;-63
2023/04/02 01:29:47;;;;;;;1.30;1.20;;;;;;;;;;5098421;28;20226;-63
2023/04/02 01:32:18;;;;;;;2.73;1.20;;;;;;;;;;5097093;28;20205;-63
2023/04/02 01:34:47;;;;;;;1.77;0.90;;;;;;;;;;5091006;28;20229;-63
2023/04/02 01:37:21;;;;;;;0.83;0.80;;;;;;;;;;5100137;28;20258;-63
2023/04/02 01:40:00;;;;;;;1.70;0.90;;;;;;;;;;5099137;28;20311;-63
2023/04/02 01:42:31;;;;;;;1.53;0.70;;;;;;;;;;5085703;28;20209;-63
2023/04/02 01:45:02;;;;;;;1.20;0.67;;;;;;;;;;5098708;28;20228;-63
2023/04/02 01:47:32;;;;;;;1.37;0.90;;;;;;;;;;5098705;28;20575;-63
2023/04/02 01:50:02;;;;;;;0.70;0.70;;;;;;;;;;5098376;28;20700;-63
2023/04/02 01:52:36;;;;;;;1.57;0.80;;;;;;;;;;5098752;28;20206;-63
2023/04/02 01:55:04;;;;;;;0.80;0.80;;;;;;;;;;5098614;28;20209;-63
2023/04/02 01:57:32;;;;;;;0.90;0.80;;;;;;;;;;5098932;28;20206;-64
2023/04/02 02:00:06;;;;;;;1.27;0.97;;;;;;;;;;5098822;28;20229;-64
2023/04/02 02:02:35;;;;;;;0.80;0.80;;;;;;;;;;5098475;28;20201;-63
2023/04/02 02:05:03;;;;;;;3.50;0.90;;;;;;;;;;5098335;28;20217;-63
2023/04/02 02:07:31;;;;;;;1.87;1.00;;;;;;;;;;5098460;28;20233;-63
2023/04/02 02:09:59;;;;;;;1.10;0.93;;;;;;;;;;5098620;28;20229;-64
2023/04/02 02:12:27;;;;;;;0.67;0.67;;;;;;;;;;5098995;28;20207;-63
2023/04/02 02:14:55;;;;;;;1.57;1.00;;;;;;;;;;5099325;28;20231;-63
2023/04/02 02:17:28;;;;;;;0.70;0.70;;;;;;;;;;5098796;28;20213;-63
2023/04/02 02:19:56;;;;;;;1.27;0.90;;;;;;;;;;5098198;28;20225;-63
2023/04/02 02:22:27;;;;;;;1.50;0.80;;;;;;;;;;5098304;28;20231;-63
2023/04/02 02:24:55;;;;;;;1.13;0.90;;;;;;;;;;5098400;28;20225;-63
2023/04/02 02:27:38;;;;;;;1.20;1.03;;;;;;;;;;5098386;28;20207;-63
2023/04/02 02:30:11;;;;;;;1.60;0.90;;;;;;;;;;5097091;28;20228;-64
2023/04/02 02:32:43;;;;;;;3.23;1.97;;;;;;;;;;5098268;28;20315;-64
2023/04/02 02:35:12;;;;;;;1.70;1.37;;;;;;;;;;5098029;28;20653;-63
2023/04/02 02:37:42;;;;;;;2.13;1.87;;;;;;;;;;5098184;28;20212;-63
2023/04/02 02:40:12;;;;;;;1.33;1.23;;;;;;;;;;5098030;28;20264;-63
2023/04/02 02:42:42;;;;;;;3.13;1.57;;;;;;;;;;5097228;28;20209;-63
2023/04/02 02:45:13;;;;;;;3.03;1.87;;;;;;;;;;5097861;28;20593;-63
2023/04/02 02:47:43;;;;;;;1.63;1.53;;;;;;;;;;5097887;28;20209;-63
2023/04/02 02:50:14;;;;;;;3.27;2.20;;;;;;;;;;5097787;28;20596;-63
2023/04/02 02:52:46;;;;;;;4.97;2.73;;;;;;;;;;5097986;28;20283;-63
2023/04/02 02:55:16;;;;;;;3.80;2.60;;;;;;;;;;5097767;28;20198;-63
2023/04/02 02:57:46;;;;;;;4.10;2.83;;;;;;;;;;5097789;28;20205;-63
2023/04/02 03:00:18;;;;;;;3.40;2.80;;;;;;;;;;5097862;28;20260;-63
2023/04/02 03:02:48;;;;;;;5.27;3.20;;;;;;;;;;5084068;28;20205;-63
2023/04/02 03:05:18;;;;;;;3.47;2.80;;;;;;;;;;5097744;28;20229;-63
2023/04/02 03:07:46;;;;;;;5.37;2.80;;;;;;;;;;5097636;28;20264;-63
2023/04/02 03:10:16;;;;;;;6.33;3.00;;;;;;;;;;5097484;28;20232;-63
2023/04/02 03:12:47;;;;;;;3.80;3.23;;;;;;;;;;5097902;28;20233;-63
2023/04/02 03:15:21;;;;;;;5.33;2.97;;;;;;;;;;5097566;28;20204;-63
2023/04/02 03:17:53;;;;;;;3.27;2.77;;;;;;;;;;5097452;28;20288;-63
2023/04/02 03:20:26;;;;;;;3.40;2.67;;;;;;;;;;5097734;28;20225;-64
2023/04/02 03:22:56;;;;;;;2.50;2.30;;;;;;;;;;5097540;28;20215;-64
2023/04/02 03:25:28;;;;;;;3.97;2.77;;;;;;;;;;5097857;28;20247;-63
2023/04/02 03:27:59;;;;;;;4.00;2.77;;;;;;;;;;5097604;28;20648;-63
2023/04/02 03:30:29;;;;;;;2.67;2.47;;;;;;;;;;5097448;28;20286;-63
2023/04/02 03:33:01;;;;;;;3.73;3.03;;;;;;;;;;5097909;28;20280;-63
2023/04/02 03:35:32;;;;;;;3.93;3.07;;;;;;;;;;5087738;28;20232;-64
2023/04/02 03:38:02;;;;;;;3.07;2.77;;;;;;;;;;5097526;28;20213;-63
2023/04/02 03:40:32;;;;;;;2.40;2.20;;;;;;;;;;5097222;28;20579;-64
2023/04/02 03:43:02;;;;;;;3.20;2.53;;;;;;;;;;5097659;28;20244;-63
2023/04/02 03:45:34;;;;;;;2.93;2.53;;;;;;;;;;5097428;28;20225;-63
2023/04/02 03:48:08;;;;;;;2.70;2.50;;;;;;;;;;5097131;28;20209;-63
2023/04/02 03:50:38;;;;;;;2.53;2.33;;;;;;;;;;5097621;28;20225;-63
2023/04/02 03:53:06;;;;;;;2.63;2.20;;;;;;;;;;5098094;28;20209;-63
2023/04/02 03:55:36;;;;;;;3.73;2.80;;;;;;;;;;5101026;28;20201;-63
2023/04/02 03:58:07;;;;;;;3.23;2.67;;;;;;;;;;5101306;28;20208;-64
2023/04/02 04:00:37;;;;;;;2.43;2.00;;;;;;;;;;5101297;28;20304;-64
2023/04/02 04:03:10;;;;;;;2.30;2.10;;;;;;;;;;5101141;28;20201;-64
2023/04/02 04:05:43;;;;;;;5.33;2.60;;;;;;;;;;5100649;28;20229;-63
2023/04/02 04:08:14;;;;;;;3.27;2.80;;;;;;;;;;5100685;28;20263;-64
2023/04/02 04:10:42;;;;;;;2.80;2.20;;;;;;;;;;5100857;28;20229;-64
2023/04/02 04:13:13;;;;;;;3.77;2.30;;;;;;;;;;5101017;28;20661;-64
2023/04/02 04:15:47;;;;;;;3.37;2.87;;;;;;;;;;5100948;28;20209;-64
2023/04/02 04:18:20;;;;;;;2.60;2.37;;;;;;;;;;5100652;28;20205;-64
2023/04/02 04:20:55;;;;;;;2.87;2.27;;;;;;;;;;5100714;28;20229;-64
2023/04/02 04:23:29;;;;;;;3.00;2.40;;;;;;;;;;5100405;28;20631;-64
2023/04/02 04:25:57;;;;;;;2.73;1.80;;;;;;;;;;5100381;28;20233;-64
2023/04/02 04:28:29;;;;;;;2.87;2.30;;;;;;;;;;5100527;28;20210;-64
2023/04/02 04:30:59;;;;;;;3.80;2.03;;;;;;;;;;5100157;28;20265;-64
2023/04/02 04:33:33;;;;;;;2.50;2.30;;;;;;;;;;5100020;28;20210;-64
2023/04/02 04:36:02;;;;;;;3.27;2.13;;;;;;;;;;5100115;28;20235;-64
2023/04/02 04:38:32;;;;;;;3.13;2.23;;;;;;;;;;5100194;28;20244;-64
2023/04/02 04:41:03;;;;;;;3.33;2.50;;;;;;;;;;5100241;28;20221;-64
2023/04/02 04:43:37;;;;;;;2.73;2.30;;;;;;;;;;5100301;28;20216;-64
2023/04/02 04:46:06;;;;;;;3.10;2.57;;;;;;;;;;5100189;28;20233;-64
2023/04/02 04:48:37;;;;;;;3.30;2.00;;;;;;;;;;5100080;28;20217;-64
2023/04/02 04:51:08;;;;;;;2.90;1.90;;;;;;;;;;5099928;28;20271;-64
2023/04/02 04:53:41;;;;;;;4.40;2.20;;;;;;;;;;5100264;28;20206;-64
2023/04/02 04:56:09;;;;;;;2.57;1.80;;;;;;;;;;5099830;28;20206;-64
2023/04/02 04:58:49;;;;;;;2.53;1.40;;;;;;;;;;5099739;28;20205;-64
2023/04/02 05:01:19;;;;;;;1.93;1.70;;;;;;;;;;5099579;28;20229;-64
2023/04/02 05:03:51;;;;;;;1.90;1.43;;;;;;;;;;5099646;28;20212;-64
2023/04/02 05:06:23;;;;;;;2.47;1.30;;;;;;;;;;5099030;28;20229;-64
2023/04/02 05:08:52;;;;;;;1.97;1.40;;;;;;;;;;5099376;28;20682;-64
2023/04/02 05:11:22;;;;;;;3.60;1.70;;;;;;;;;;5099658;28;20225;-64
2023/04/02 05:13:52;;;;;;;2.43;1.50;;;;;;;;;;5099356;28;20202;-64
2023/04/02 05:16:23;;;;;;;2.30;1.40;;;;;;;;;;5091283;28;20201;-64
2023/04/02 05:18:57;;;;;;;1.97;1.50;;;;;;;;;;5096824;28;20668;-64
2023/04/02 05:21:27;;;;;;;1.67;1.20;;;;;;;;;;5099288;28;20213;-64
2023/04/02 05:23:58;;;;;;;1.23;1.13;;;;;;;;;;5097935;28;20206;-64
2023/04/02 05:26:30;;;;;;;1.00;1.00;;;;;;;;;;5098918;28;20225;-65
2023/04/02 05:29:00;;;;;;;2.20;1.27;;;;;;;;;;5099570;28;20657;-65
2023/04/02 05:31:31;;;;;;;0.73;0.73;;;;;;;;;;5100047;28;20209;-65
2023/04/02 05:34:01;;;;;;;0.80;0.80;;;;;;;;;;5098857;28;20568;-64
2023/04/02 05:36:30;;;;;;;2.07;1.03;;;;;;;;;;5098467;28;20225;-64
2023/04/02 05:38:58;;;;;;;1.27;0.80;;;;;;;;;;5095176;28;20688;-64
2023/04/02 05:41:29;;;;;;;1.50;0.90;;;;;;;;;;5098913;28;20205;-64
2023/04/02 05:44:02;;;;;;;1.30;0.90;;;;;;;;;;5098877;28;20210;-65
2023/04/02 05:46:33;;;;;;;2.53;1.20;;;;;;;;;;5098799;28;20312;-64
2023/04/02 05:49:04;;;;;;;1.90;1.13;;;;;;;;;;5098424;28;20255;-64
2023/04/02 05:51:37;;;;;;;1.80;1.13;;;;;;;;;;5098724;28;20575;-64
2023/04/02 05:54:12;;;;;;;1.20;1.20;;;;;;;;;;5096785;28;20233;-64
2023/04/02 05:56:42;;;;;;;2.07;1.00;;;;;;;;;;5089752;28;20372;-64
2023/04/02 05:59:12;;;;;;;2.83;1.43;;;;;;;;;;5085390;28;20561;-64
2023/04/02 06:01:44;;;;;;;1.07;0.90;;;;;;;;;;5089511;28;20221;-64
2023/04/02 06:04:17;;;;;;;1.03;1.03;;;;;;;;;;5087532;28;20205;-64
2023/04/02 06:06:48;;;;;;;1.17;1.07;;;;;;;;;;5098535;28;20225;-65
2023/04/02 06:09:20;;;;;;;1.47;1.33;;;;;;;;;;5098304;28;20216;-64
2023/04/02 06:11:51;;;;;;;1.43;1.33;;;;;;;;;;5085891;28;20255;-64
2023/04/02 06:14:19;;;;;;;2.07;1.57;;;;;;;;;;5098155;28;20220;-63
2023/04/02 06:16:47;;;;;;;1.73;1.40;;;;;;;;;;5097708;28;20201;-64
2023/04/02 06:19:18;;;;;;;5.23;1.87;;;;;;;;;;5097545;28;20214;-64
2023/04/02 06:21:48;;;;;;;1.53;1.43;;;;;;;;;;5098028;28;20715;-64
2023/04/02 06:24:18;;;;;;;1.50;1.33;;;;;;;;;;5097979;28;20254;-63
2023/04/02 06:26:48;;;;;;;2.20;1.60;;;;;;;;;;5098154;28;20213;-63
2023/04/02 06:29:19;;;;;;;2.13;1.53;;;;;;;;;;5097489;28;20198;-63
2023/04/02 06:31:50;;;;;;;2.93;2.00;;;;;;;;;;5098273;28;20209;-63
2023/04/02 06:34:21;;;;;;;2.00;1.80;;;;;;;;;;5097985;28;20237;-63
2023/04/02 06:36:49;;;;;;;1.30;1.20;;;;;;;;;;5098182;28;20209;-63
2023/04/02 06:39:19;;;;;;;1.63;1.53;;;;;;;;;;5098038;28;20329;-63
2023/04/02 06:41:47;;;;;;;1.73;1.60;;;;;;;;;;5097958;28;20240;-63
2023/04/02 06:44:16;;;;;;;2.80;1.70;;;;;;;;;;5097900;28;20205;-63
2023/04/02 06:46:47;;;;;;;1.90;1.63;;;;;;;;;;5098296;28;20205;-63
2023/04/02 06:49:20;;;;;;;1.40;1.30;;;;;;;;;;5098371;28;20235;-63
2023/04/02 06:51:50;;;;;;;1.37;1.27;;;;;;;;;;5097898;28;20605;-63
2023/04/02 06:54:19;;;;;;;1.77;1.50;;;;;;;;;;5093088;28;20207;-64
2023/04/02 06:56:47;;;;;;;1.47;1.37;;;;;;;;;;5092563;28;20212;-64
2023/04/02 06:59:16;;;;;;;1.63;1.40;;;;;;;;;;5097408;28;20213;-64
2023/04/02 07:01:47;;;;;;;1.57;1.40;;;;;;;;;;5097513;28;20198;-64
2023/04/02 07:04:16;;;;;;;1.90;1.70;;;;;;;;;;5097528;28;20205;-65
2023/04/02 07:06:44;;;;;;;2.37;1.40;;;;;;;;;;5097517;28;20237;-65
2023/04/02 07:09:13;;;;;;;1.40;1.30;;;;;;;;;;5097098;28;20603;-65
2023/04/02 07:11:41;;;;;;;2.83;1.47;;;;;;;;;;5097349;28;20209;-65
2023/04/02 07:14:11;;;;;;;2.10;1.20;;;;;;;;;;5097584;28;20213;-65
2023/04/02 07:16:39;;;;;;;1.70;1.60;;;;;;;;;;5097188;28;20205;-65
2023/04/02 07:19:15;;;;;;;2.17;1.53;;;;;;;;;;5097099;28;20202;-64
2023/04/02 07:21:43;;;;;;;1.70;1.60;;;;;;;;;;5097486;28;20209;-65
2023/04/02 07:24:11;;;;;;;1.63;1.50;;;;;;;;;;5097651;28;20231;-65
2023/04/02 07:26:40;;;;;;;2.10;1.50;;;;;;;;;;5097542;28;20665;-64
2023/04/02 07:29:08;;;;;;;1.63;1.47;;;;;;;;;;5099849;28;20233;-64
2023/04/02 07:31:38;;;;;;;1.90;1.30;;;;;;;;;;5101336;28;20206;-64
2023/04/02 07:34:07;;;;;;;3.00;1.50;;;;;;;;;;5100765;28;20205;-64
2023/04/02 07:36:35;;;;;;;1.53;1.43;;;;;;;;;;5101206;28;20235;-65
2023/04/02 07:39:04;;;;;;;1.37;1.20;;;;;;;;;;5100823;28;20749;-65
2023/04/02 07:41:32;;;;;;;1.43;1.13;;;;;;;;;;5100836;28;20233;-64
2023/04/02 07:44:01;;;;;;;2.37;1.90;;;;;;;;;;5101239;28;20210;-64
2023/04/02 07:46:29;;;;;;;1.53;1.43;;;;;;;;;;5100786;28;20588;-65
2023/04/02 07:48:57;;;;;;;1.37;1.27;;;;;;;;;;5094940;28;20232;-65
2023/04/02 07:51:26;;;;;;;1.50;1.40;;;;;;;;;;5100393;28;20310;-65
2023/04/02 07:53:54;;;;;;;2.83;1.30;;;;;;;;;;5100602;28;20205;-65
2023/04/02 07:56:23;;;;;;;1.23;1.13;;;;;;;;;;5100481;28;20205;-65
2023/04/02 07:58:52;;;;;;;4.17;1.40;;;;;;;;;;5093731;28;20310;-64
2023/04/02 08:01:22;;;;;;;1.87;1.13;;;;;;;;;;5100549;28;20221;-65
2023/04/02 08:03:50;;;;;;;2.23;1.30;;;;;;;;;;5100848;28;20205;-65
2023/04/02 08:06:21;;;;;;;2.13;1.20;;;;;;;;;;5100659;28;20214;-66
2023/04/02 08:08:49;;;;;;;5.07;1.40;;;;;;;;;;5100214;28;20283;-67
2023/04/02 08:11:17;;;;;;;1.60;1.50;;;;;;;;;;5100218;28;20362;-64
2023/04/02 08:13:45;;;;;;;2.47;1.27;;;;;;;;;;5100408;28;20239;-65
2023/04/02 08:16:13;;;;;;;1.97;1.40;;;;;;;;;;5100395;28;20202;-65
2023/04/02 08:18:43;;;;;;;1.43;1.30;;;;;;;;;;5099955;28;20571;-65
2023/04/02 08:21:11;;;;;;;2.00;1.50;;;;;;;;;;5100389;28;20226;-65
2023/04/02 08:23:40;;;;;;;1.50;1.40;;;;;;;;;;5100158;28;20251;-65
2023/04/02 08:26:09;;;;;;;2.97;1.27;;;;;;;;;;5100445;28;20232;-66
2023/04/02 08:28:37;;;;;;;3.73;2.50;;;;;;;;;;5100084;28;20221;-66
2023/04/02 08:31:07;;;;;;;2.17;1.50;;;;;;;;;;5099899;28;20244;-66
2023/04/02 08:33:35;;;;;;;3.70;1.30;;;;;;;;;;5099986;28;20206;-66
2023/04/02 08:36:05;;;;;;;2.27;1.60;;;;;;;;;;5100324;28;20237;-66
2023/04/02 08:38:33;;;;;;;1.50;1.40;;;;;;;;;;5100048;28;20202;-66
2023/04/02 08:41:02;;;;;;;1.70;1.33;;;;;;;;;;5099991;28;20736;-66
2023/04/02 08:43:41;;;;;;;1.40;1.30;;;;;;;;;;5099861;28;20715;-65
2023/04/02 08:46:12;;;;;;;1.57;1.43;;;;;;;;;;5100032;28;20244;-66
2023/04/02 08:48:42;;;;;;;1.53;1.40;;;;;;;;;;5099350;28;20714;-66
2023/04/02 08:51:18;;;;;;;6.27;4.67;;;;;;;;;;5099730;28;20239;-66
2023/04/02 08:53:47;;;;;;;2.27;1.70;;;;;;;;;;5094535;28;20198;-66
2023/04/02 08:56:18;;;;;;;1.93;1.67;;;;;;;;;;5099745;28;20233;-65
2023/04/02 08:58:48;;;;;;;2.03;1.50;;;;;;;;;;5086527;28;20274;-66
2023/04/02 09:01:21;;;;;;;4.20;1.70;;;;;;;;;;5099538;28;20352;-65
2023/04/02 09:03:50;;;;;;;1.53;1.43;;;;;;;;;;5099478;28;20259;-66
2023/04/02 09:06:20;;;;;;;2.63;1.73;;;;;;;;;;5099103;28;20205;-65
2023/04/02 09:08:52;;;;;;;3.07;1.80;;;;;;;;;;5099184;28;20236;-66
2023/04/02 09:11:23;;;;;;;3.07;1.77;;;;;;;;;;5099664;28;20225;-66
2023/04/02 09:13:54;;;;;;;2.30;1.30;;;;;;;;;;5099455;28;20649;-66
2023/04/02 09:16:26;;;;;;;1.53;1.27;;;;;;;;;;5099974;28;20212;-66
2023/04/02 09:18:54;;;;;;;2.23;1.77;;;;;;;;;;5099859;28;20237;-66
2023/04/02 09:21:31;;;;;;;1.60;1.50;;;;;;;;;;5099168;28;20212;-66
2023/04/02 09:23:59;;;;;;;4.57;1.80;;;;;;;;;;5099256;28;20209;-66
2023/04/02 09:26:29;;;;;;;3.37;1.53;;;;;;;;;;5099333;28;20296;-66
2023/04/02 09:29:01;;;;;;;2.90;1.63;;;;;;;;;;5098972;28;20283;-66
2023/04/02 09:31:31;;;;;;;1.97;1.70;;;;;;;;;;5099093;28;20211;-65
2023/04/02 09:34:00;;;;;;;1.40;1.30;;;;;;;;;;5098569;28;20632;-66
2023/04/02 09:36:33;;;;;;;1.30;1.20;;;;;;;;;;5098808;28;20734;-66
2023/04/02 09:39:05;;;;;;;1.37;1.10;;;;;;;;;;5098488;28;20209;-66
2023/04/02 09:41:34;;;;;;;2.40;1.30;;;;;;;;;;5099055;28;20209;-66
2023/04/02 09:44:19;;;;;;;1.17;1.17;;;;;;;;;;5099062;28;20221;-66
2023/04/02 09:46:52;;;;;;;1.33;1.23;;;;;;;;;;5098796;28;20239;-67
2023/04/02 09:49:22;;;;;;;1.20;1.10;;;;;;;;;;5096532;28;20719;-66
2023/04/02 09:52:09;;;;;;;1.43;1.33;;;;;;;;;;5098526;28;20209;-66
2023/04/02 09:54:40;;;;;;;2.10;1.13;;;;;;;;;;5092891;28;20653;-66
2023/04/02 09:57:17;;;;;;;1.30;1.20;;;;;;;;;;5094706;28;20202;-67
2023/04/02 09:59:45;;;;;;;1.80;1.03;;;;;;;;;;5090538;28;20221;-67
2023/04/02 10:02:24;;;;;;;1.20;1.03;;;;;;;;;;5098287;28;20659;-65
2023/04/02 10:04:52;;;;;;;1.20;1.10;;;;;;;;;;5098086;28;20256;-65
2023/04/02 10:07:36;;;;;;;1.10;1.00;;;;;;;;;;5098899;28;20300;-65
2023/04/02 10:10:15;;;;;;;1.10;1.10;;;;;;;;;;5091460;28;20247;-65
2023/04/02 10:12:45;;;;;;;2.10;1.20;;;;;;;;;;5094365;28;20208;-66
2023/04/02 10:15:15;;;;;;;1.57;1.10;;;;;;;;;;5084467;28;20202;-66
2023/04/02 10:17:43;;;;;;;2.20;1.40;;;;;;;;;;5093124;28;20208;-66
2023/04/02 10:20:17;;;;;;;1.53;1.43;;;;;;;;;;5087760;28;20214;-66
2023/04/02 10:22:47;;;;;;;3.00;1.27;;;;;;;;;;5091758;28;20193;-66
2023/04/02 10:25:15;;;;;;;2.57;1.33;;;;;;;;;;5086806;28;20194;-66
2023/04/02 10:27:46;;;;;;;1.43;1.40;;;;;;;;;;5093393;28;20203;-66
2023/04/02 10:30:20;;;;;;;2.97;1.40;;;;;;;;;;5085598;28;20226;-66
2023/04/02 10:32:51;;;;;;;3.03;1.40;;;;;;;;;;5097237;28;20205;-66
2023/04/02 10:35:24;;;;;;;2.23;1.33;;;;;;;;;;5097593;28;20225;-66
2023/04/02 10:38:00;;;;;;;1.17;1.17;;;;;;;;;;5097649;28;20616;-66
2023/04/02 10:40:29;;;;;;;1.53;1.43;;;;;;;;;;5097396;28;20305;-66
2023/04/02 10:43:05;;;;;;;3.10;1.47;;;;;;;;;;5097457;28;20213;-66
2023/04/02 10:45:37;;;;;;;3.40;1.67;;;;;;;;;;5097501;28;20236;-66
2023/04/02 10:48:08;;;;;;;2.83;1.57;;;;;;;;;;5096582;28;20198;-66
2023/04/02 10:50:41;;;;;;;1.97;1.60;;;;;;;;;;5083847;28;20225;-67
2023/04/02 10:53:13;;;;;;;1.50;1.40;;;;;;;;;;5091065;28;20226;-66
2023/04/02 10:55:43;;;;;;;3.80;1.47;;;;;;;;;;5097467;28;20719;-66
2023/04/02 10:58:20;;;;;;;1.57;1.47;;;;;;;;;;5097505;28;20216;-66
2023/04/02 11:00:49;;;;;;;1.23;1.20;;;;;;;;;;5097168;28;20221;-66
2023/04/02 11:03:21;;;;;;;2.80;1.57;;;;;;;;;;5098324;28;20201;-66
2023/04/02 11:05:50;;;;;;;1.83;1.70;;;;;;;;;;5100513;28;20205;-66
2023/04/02 11:08:21;;;;;;;1.70;1.60;;;;;;;;;;5100164;28;20231;-66
2023/04/02 11:10:50;;;;;;;1.90;1.70;;;;;;;;;;5100203;28;20231;-66
2023/04/02 11:13:22;;;;;;;1.73;1.50;;;;;;;;;;5099851;28;20676;-66
2023/04/02 11:15:50;;;;;;;3.10;1.73;;;;;;;;;;5099948;28;20208;-66
2023/04/02 11:18:22;;;;;;;2.70;1.70;;;;;;;;;;5100097;28;20262;-66
2023/04/02 11:20:56;;;;;;;3.30;2.50;;;;;;;;;;5099900;28;20229;-66
2023/04/02 11:23:28;;;;;;;4.60;3.20;;;;;;;;;;5100328;28;20204;-65
2023/04/02 11:26:10;;;;;;;4.20;3.17;;;;;;;;;;5097623;28;20212;-66
2023/04/02 11:28:39;;;;;;;3.60;2.70;;;;;;;;;;5086833;28;20202;-67
2023/04/02 11:31:06;;;;;;;3.77;2.63;;;;;;;;;;5098990;28;20217;-66
2023/04/02 11:33:39;;;;;;;2.77;2.57;;;;;;;;;;5099788;28;20201;-65
2023/04/02 11:36:30;;;;;;;2.37;2.07;;;;;;;;;;5097977;28;20200;-65
2023/04/02 11:38:59;;;;;;;2.83;2.10;;;;;;;;;;5098115;28;20211;-66
2023/04/02 11:42:06;;;;;;;2.67;2.47;;;;;;;;;;5099068;28;20193;-65
2023/04/02 11:44:34;;;;;;;2.77;2.13;;;;;;;;;;5097656;28;20198;-65
2023/04/02 11:47:15;;;;;;;1.70;1.60;;;;;;;;;;5099661;28;20201;-64
2023/04/02 11:50:00;;;;;;;1.27;1.27;;;;;;;;;;5098466;28;20317;-65
2023/04/02 11:52:34;;;;;;;1.37;1.20;;;;;;;;;;5099367;28;20202;-64
2023/04/02 11:55:21;;;;;;;2.17;1.97;;;;;;;;;;5100007;28;20201;-65
2023/04/02 11:58:00;;;;;;;2.67;1.50;;;;;;;;;;5099689;28;20214;-64
2023/04/02 12:00:46;;;;;;;1.33;1.20;;;;;;;;;;5098471;28;20293;-64
2023/04/02 12:03:20;;;;;;;1.40;1.30;;;;;;;;;;5085824;28;20266;-64
2023/04/02 12:05:53;;;;;;;1.20;1.20;;;;;;;;;;5099513;28;20197;-64
2023/04/02 12:08:24;;;;;;;1.77;1.67;;;;;;;;;;5101222;28;20771;-65
2023/04/02 12:10:54;;;;;;;1.33;1.23;;;;;;;;;;5099853;28;20230;-65
2023/04/02 12:16:18;;;;;;;1.93;1.50;;;;;;;;;;5135285;27;20544;-61
2023/04/02 12:18:50;;;;;;;5.03;2.07;;;;;;;;;;5124537;27;20675;-65
2023/04/02 12:21:19;;;;;;;1.77;1.60;;;;;;;;;;5117160;28;20579;-65
2023/04/02 12:23:47;;;;;;;1.27;1.17;;;;;;;;;;5104009;28;20208;-65
2023/04/02 12:26:28;;;;;;;1.40;1.30;;;;;;;;;;5105063;28;20197;-64
2023/04/02 12:29:11;;;;;;;1.50;1.40;;;;;;;;;;5102347;28;20287;-64
2023/04/02 12:31:44;;;;;;;1.40;1.30;;;;;;;;;;5099705;28;20258;-64
2023/04/02 12:34:14;;;;;;;1.40;1.30;;;;;;;;;;5102364;28;20201;-64
2023/04/02 12:36:51;;;;;;;1.30;1.30;;;;;;;;;;5104092;28;20241;-63
2023/04/02 12:39:20;;;;;;;1.33;1.23;;;;;;;;;;5103957;28;20784;-64
2023/04/02 12:41:48;;;;;;;2.10;1.60;;;;;;;;;;5104396;28;20268;-64
2023/04/02 12:44:17;;;;;;;2.17;1.70;;;;;;;;;;5103136;28;20229;-63
2023/04/02 12:46:47;;;;;;;1.37;1.27;;;;;;;;;;5104919;28;20204;-63
2023/04/02 12:49:21;;;;;;;2.23;1.10;;;;;;;;;;5103501;28;20216;-64
2023/04/02 12:51:50;;;;;;;1.30;1.03;;;;;;;;;;5103599;28;20561;-64
2023/04/02 12:54:19;;;;;;;1.30;1.20;;;;;;;;;;5106880;28;20254;-63
2023/04/02 12:56:48;;;;;;;0.90;0.90;;;;;;;;;;5112266;28;20290;-62
2023/04/02 12:59:27;;;;;;;1.07;1.07;;;;;;;;;;5114496;28;20258;-62
2023/04/02 13:01:57;;;;;;;1.53;1.30;;;;;;;;;;5114196;28;20266;-61
2023/04/02 13:04:25;;;;;;;1.20;1.10;;;;;;;;;;5108019;28;20205;-63
2023/04/02 13:06:55;;;;;;;2.10;1.30;;;;;;;;;;5114608;28;20213;-63
2023/04/02 13:09:28;;;;;;;1.10;1.10;;;;;;;;;;5114501;28;20263;-63
2023/04/02 13:11:56;;;;;;;0.93;0.93;;;;;;;;;;5114365;28;20235;-64
2023/04/02 13:14:24;;;;;;;1.87;1.03;;;;;;;;;;5114011;28;20273;-64
2023/04/02 13:16:52;;;;;;;1.30;1.30;;;;;;;;;;5114335;28;20213;-64
2023/04/02 13:19:38;;;;;;;1.07;1.07;;;;;;;;;;5109828;28;20232;-64
2023/04/02 13:22:21;;;;;;;1.27;1.00;;;;;;;;;;5107051;28;20656;-64
2023/04/02 13:24:50;;;;;;;2.90;1.37;;;;;;;;;;5113775;28;20211;-63
2023/04/02 13:27:18;;;;;;;1.00;1.00;;;;;;;;;;5102160;28;20573;-61
2023/04/02 13:29:46;;;;;;;0.60;0.60;;;;;;;;;;5093848;28;20777;-63
2023/04/02 13:32:14;;;;;;;1.07;1.07;;;;;;;;;;5096153;28;20851;-63
2023/04/02 13:34:42;;;;;;;1.00;0.80;;;;;;;;;;5100512;28;20237;-63
2023/04/02 13:37:11;;;;;;;2.63;1.00;;;;;;;;;;5093272;28;20206;-63
2023/04/02 13:39:39;;;;;;;1.10;1.10;;;;;;;;;;5098559;28;20626;-63
2023/04/02 13:42:11;;;;;;;1.27;1.10;;;;;;;;;;5100063;28;20711;-63
2023/04/02 13:44:39;;;;;;;1.73;1.57;;;;;;;;;;5100270;28;20209;-63
2023/04/02 13:47:07;;;;;;;0.80;0.80;;;;;;;;;;5099878;28;20209;-63
2023/04/02 13:49:35;;;;;;;3.13;0.70;;;;;;;;;;5100372;28;20232;-63
2023/04/02 13:52:04;;;;;;;0.97;0.97;;;;;;;;;;5100196;28;20232;-63
2023/04/02 13:54:33;;;;;;;0.70;0.70;;;;;;;;;;5098961;28;20205;-63
2023/04/02 13:57:01;;;;;;;0.67;0.67;;;;;;;;;;5099999;28;20233;-63
2023/04/02 13:59:31;;;;;;;0.80;0.80;;;;;;;;;;5100018;28;20218;-63
2023/04/02 14:02:02;;;;;;;0.70;0.70;;;;;;;;;;5099779;28;20202;-63
2023/04/02 14:04:33;;;;;;;0.80;0.80;;;;;;;;;;5099862;28;20255;-63
2023/04/02 14:07:08;;;;;;;1.37;0.93;;;;;;;;;;5100038;28;20236;-63
2023/04/02 14:09:44;;;;;;;1.13;0.83;;;;;;;;;;5099558;28;20598;-63
2023/04/02 14:12:16;;;;;;;0.93;0.93;;;;;;;;;;5091745;28;20205;-63
2023/04/02 14:14:53;;;;;;;1.70;1.27;;;;;;;;;;5099518;28;20237;-63
2023/04/02 14:17:24;;;;;;;1.20;1.10;;;;;;;;;;5099538;28;20201;-63
2023/04/02 14:19:58;;;;;;;0.80;0.80;;;;;;;;;;5099701;28;20229;-64
2023/04/02 14:22:33;;;;;;;1.07;0.97;;;;;;;;;;5099571;28;20609;-63
2023/04/02 14:25:07;;;;;;;0.90;0.80;;;;;;;;;;5099695;28;20209;-63
2023/04/02 14:27:41;;;;;;;1.40;1.17;;;;;;;;;;5098252;28;20233;-63
2023/04/02 14:30:12;;;;;;;1.23;1.13;;;;;;;;;;5089964;28;20228;-63
2023/04/02 14:32:45;;;;;;;1.87;1.33;;;;;;;;;;5098459;28;20205;-64
2023/04/02 14:35:17;;;;;;;1.53;1.07;;;;;;;;;;5099104;28;20227;-64
2023/04/02 14:37:50;;;;;;;1.07;0.90;;;;;;;;;;5098228;28;20729;-63
2023/04/02 14:40:21;;;;;;;1.13;0.87;;;;;;;;;;5097673;28;20308;-64
2023/04/02 14:42:53;;;;;;;1.77;1.60;;;;;;;;;;5099248;28;20209;-63
2023/04/02 14:45:29;;;;;;;0.70;0.70;;;;;;;;;;5091054;28;20208;-63
2023/04/02 14:48:00;;;;;;;0.80;0.80;;;;;;;;;;5098881;28;20288;-63
2023/04/02 14:50:31;;;;;;;0.87;0.87;;;;;;;;;;5098934;28;20313;-63
2023/04/02 14:53:01;;;;;;;1.80;0.60;;;;;;;;;;5098862;28;20206;-63
2023/04/02 14:55:32;;;;;;;1.33;0.90;;;;;;;;;;5098883;28;20250;-64
2023/04/02 14:58:01;;;;;;;0.90;0.90;;;;;;;;;;5098924;28;20244;-64
2023/04/02 15:00:32;;;;;;;0.50;0.50;;;;;;;;;;5098494;28;20222;-63
2023/04/02 15:03:04;;;;;;;0.80;0.70;;;;;;;;;;5097372;28;20603;-64
2023/04/02 15:05:36;;;;;;;0.77;0.70;;;;;;;;;;5098891;28;20288;-64
2023/04/02 15:08:05;;;;;;;0.70;0.70;;;;;;;;;;5098529;28;20213;-64
2023/04/02 15:10:35;;;;;;;1.30;0.63;;;;;;;;;;5098420;28;20259;-64